createdAt,value
2022-11-22T00:00:34.036Z,7.08
2022-11-22T00:03:40.428Z,6.92
2022-11-22T00:06:47.454Z,7.97
2022-11-22T00:09:54.538Z,7.80
2022-11-22T00:13:00.605Z,6.90
2022-11-22T00:16:15.624Z,6.72
2022-11-22T00:19:21.190Z,7.20
2022-11-22T00:22:27.734Z,7.50
2022-11-22T00:25:34.474Z,7.28
2022-11-22T00:28:40.121Z,6.72
2022-11-22T00:31:45.731Z,8.73
2022-11-22T00:34:51.515Z,6.72
2022-11-22T00:37:57.296Z,7.87
2022-11-22T00:41:04.392Z,7.33
2022-11-22T00:44:10.766Z,7.40
2022-11-22T00:47:16.586Z,7.87
2022-11-22T00:50:24.085Z,7.83
2022-11-22T00:53:31.243Z,7.28
2022-11-22T00:56:40.503Z,7.67
2022-11-22T00:59:48.938Z,7.45
2022-11-22T01:02:55.861Z,7.58
2022-11-22T01:06:02.760Z,6.80
2022-11-22T01:09:10.764Z,7.17
2022-11-22T01:12:17.196Z,7.90
2022-11-22T01:15:24.193Z,7.47
2022-11-22T01:18:30.404Z,7.60
2022-11-22T01:21:36.188Z,6.70
2022-11-22T01:24:42.249Z,7.60
2022-11-22T01:27:50.819Z,8.58
2022-11-22T01:30:57.687Z,8.03
2022-11-22T01:34:03.789Z,8.28
2022-11-22T01:37:09.403Z,8.10
2022-11-22T01:40:14.784Z,7.53
2022-11-22T01:43:24.742Z,8.03
2022-11-22T01:46:41.549Z,9.28
2022-11-22T01:50:15.881Z,8.50
2022-11-22T01:53:25.284Z,8.05
2022-11-22T01:56:32.124Z,8.23
2022-11-22T01:59:38.983Z,7.87
2022-11-22T02:02:45.698Z,7.45
2022-11-22T02:05:51.487Z,8.18
2022-11-22T02:09:10.941Z,7.72
2022-11-22T02:12:18.368Z,7.37
2022-11-22T02:15:25.497Z,6.47
2022-11-22T02:18:32.256Z,7.05
2022-11-22T02:21:38.144Z,6.25
2022-11-22T02:24:50.929Z,6.25
2022-11-22T02:31:01.891Z,6.70
2022-11-22T02:34:11.110Z,6.22
2022-11-22T02:37:17.686Z,6.00
2022-11-22T02:40:26.046Z,6.62
2022-11-22T02:43:38.059Z,6.53
2022-11-22T02:46:43.478Z,6.33
2022-11-22T02:49:48.985Z,5.75
2022-11-22T02:52:54.772Z,5.20
2022-11-22T02:56:01.179Z,5.95
2022-11-22T02:59:07.391Z,4.95
2022-11-22T03:02:13.994Z,5.47
2022-11-22T03:05:20.963Z,5.15
2022-11-22T03:08:26.968Z,4.83
2022-11-22T03:11:33.650Z,5.17
2022-11-22T03:14:39.114Z,6.10
2022-11-22T03:17:46.534Z,5.50
2022-11-22T03:20:52.318Z,5.90
2022-11-22T03:23:59.860Z,6.62
2022-11-22T03:27:04.709Z,6.37
2022-11-22T03:30:10.952Z,6.92
2022-11-22T03:33:17.974Z,6.95
2022-11-22T03:36:23.241Z,6.70
2022-11-22T03:39:29.391Z,5.87
2022-11-22T03:42:36.851Z,6.05
2022-11-22T03:45:42.558Z,6.40
2022-11-22T03:48:49.220Z,6.22
2022-11-22T03:51:56.203Z,5.95
2022-11-22T03:55:01.963Z,5.65
2022-11-22T03:58:08.603Z,5.70
2022-11-22T04:01:16.786Z,5.28
2022-11-22T04:04:21.453Z,5.20
2022-11-22T04:07:26.601Z,4.95
2022-11-22T04:10:32.714Z,5.25
2022-11-22T04:13:55.648Z,5.47
2022-11-22T04:17:02.416Z,6.10
2022-11-22T04:20:26.037Z,6.12
2022-11-22T04:23:34.503Z,5.83
2022-11-22T04:26:41.907Z,5.20
2022-11-22T04:29:51.261Z,5.78
2022-11-22T04:32:58.867Z,6.00
2022-11-22T04:36:11.875Z,5.58
2022-11-22T04:39:13.632Z,5.40
2022-11-22T04:42:38.705Z,4.97
2022-11-22T04:45:45.781Z,4.78
2022-11-22T04:48:52.558Z,5.62
2022-11-22T04:52:18.023Z,4.87
2022-11-22T04:55:23.859Z,4.92
2022-11-22T04:58:29.870Z,4.87
2022-11-22T05:01:36.392Z,4.90
2022-11-22T06:29:44.959Z,11.73
2022-11-22T06:32:54.703Z,12.60
2022-11-22T06:36:01.664Z,7.22
2022-11-22T06:39:11.678Z,7.85
2022-11-22T06:42:18.557Z,10.38
2022-11-22T06:45:26.601Z,10.58
2022-11-22T06:48:31.662Z,9.08
2022-11-22T06:51:41.679Z,9.05
2022-11-22T06:54:46.503Z,9.68
2022-11-22T06:57:52.593Z,9.43
2022-11-22T07:00:58.139Z,9.88
2022-11-22T07:04:04.949Z,10.15
2022-11-22T07:07:13.262Z,9.95
2022-11-22T07:10:22.567Z,9.78
2022-11-22T07:13:27.767Z,10.93
2022-11-22T07:16:35.164Z,10.93
2022-11-22T07:19:36.750Z,9.90
2022-11-22T07:22:23.431Z,12.93
2022-11-22T07:25:16.906Z,10.65
2022-11-22T07:28:09.022Z,9.65
2022-11-22T07:31:20.172Z,11.10
2022-11-22T07:34:27.098Z,11.90
2022-11-22T07:37:32.954Z,9.38
2022-11-22T07:40:39.349Z,14.13
2022-11-22T07:43:44.576Z,10.40
2022-11-22T07:46:51.305Z,9.10
2022-11-22T07:49:57.370Z,14.80
2022-11-22T07:53:13.332Z,11.33
2022-11-22T07:56:22.805Z,9.85
2022-11-22T07:59:28.603Z,12.88
2022-11-22T08:02:39.712Z,16.35
2022-11-22T08:05:49.761Z,13.05
2022-11-22T08:09:01.734Z,15.63
2022-11-22T08:12:05.093Z,11.28
2022-11-22T08:15:10.814Z,12.47
2022-11-22T08:18:26.616Z,9.65
2022-11-22T08:21:35.353Z,9.55
2022-11-22T08:24:42.320Z,8.53
2022-11-22T08:27:49.621Z,9.15
2022-11-22T08:30:56.430Z,8.43
2022-11-22T08:34:01.990Z,9.23
2022-11-22T08:37:08.018Z,9.40
2022-11-22T08:40:18.958Z,8.83
2022-11-22T08:43:31.508Z,8.58
2022-11-22T08:46:44.997Z,9.05
2022-11-22T08:49:50.403Z,9.30
2022-11-22T08:52:56.659Z,8.85
2022-11-22T08:56:02.199Z,8.63
2022-11-22T08:59:10.517Z,8.48
2022-11-22T09:02:17.954Z,9.40
2022-11-22T09:05:24.640Z,11.22
2022-11-22T09:08:36.063Z,10.55
2022-11-22T09:11:41.011Z,10.25
2022-11-22T09:14:48.409Z,8.25
2022-11-22T09:18:02.525Z,9.40
2022-11-22T09:21:17.503Z,7.97
2022-11-22T09:24:26.194Z,8.98
2022-11-22T09:27:31.895Z,10.72
2022-11-22T09:30:39.662Z,9.78
2022-11-22T09:33:46.011Z,8.30
2022-11-22T09:36:52.699Z,8.80
2022-11-22T09:40:02.582Z,8.55
2022-11-22T09:43:27.424Z,7.45
2022-11-22T09:46:42.079Z,9.30
2022-11-22T09:50:13.422Z,9.45
2022-11-22T09:53:40.303Z,8.90
2022-11-22T09:56:46.129Z,10.03
2022-11-22T09:59:51.886Z,9.00
2022-11-22T10:03:05.524Z,8.53
2022-11-22T10:06:16.027Z,8.55
2022-11-22T10:09:47.431Z,8.33
2022-11-22T10:13:04.538Z,7.85
2022-11-22T10:16:34.447Z,8.65
2022-11-22T10:19:46.054Z,7.97
2022-11-22T10:22:52.789Z,7.80
2022-11-22T10:26:05.257Z,7.92
2022-11-22T10:29:36.120Z,8.00
2022-11-22T10:32:57.455Z,8.88
2022-11-22T10:36:11.073Z,7.90
2022-11-22T10:39:35.044Z,9.43
2022-11-22T10:43:16.209Z,7.28
2022-11-22T10:46:43.566Z,6.50
2022-11-22T10:50:33.200Z,6.80
2022-11-22T10:54:07.746Z,6.00
2022-11-22T10:57:30.529Z,12.93
2022-11-22T11:00:38.587Z,8.05
2022-11-22T11:03:53.485Z,6.65
2022-11-22T11:07:13.004Z,5.70
2022-11-22T11:10:32.284Z,6.40
2022-11-22T11:13:45.273Z,6.97
2022-11-22T11:16:50.906Z,6.83
2022-11-22T11:19:57.380Z,9.55
2022-11-22T11:23:18.674Z,8.10
2022-11-22T11:26:10.405Z,6.08
2022-11-22T11:29:38.437Z,6.22
2022-11-22T11:32:46.266Z,8.25
2022-11-22T11:35:52.218Z,6.75
2022-11-22T11:39:08.348Z,5.85
2022-11-22T11:42:13.544Z,7.53
2022-11-22T11:45:43.659Z,9.08
2022-11-22T11:48:52.802Z,6.90
2022-11-22T11:51:59.466Z,8.18
2022-11-22T11:55:08.884Z,9.15
2022-11-22T11:58:17.473Z,7.83
2022-11-22T12:01:27.927Z,9.28
2022-11-22T12:04:44.131Z,9.08
2022-11-22T12:07:54.920Z,8.90
2022-11-22T12:11:25.653Z,8.48
2022-11-22T12:14:49.065Z,8.98
2022-11-22T12:17:41.893Z,9.50
2022-11-22T12:21:22.418Z,15.85
2022-11-22T12:25:09.359Z,9.85
2022-11-22T12:27:52.645Z,8.93
2022-11-22T12:31:02.060Z,10.45
2022-11-22T12:34:29.477Z,10.10
2022-11-22T12:37:51.230Z,10.43
2022-11-22T12:41:04.348Z,10.78
2022-11-22T12:44:12.528Z,10.35
2022-11-22T12:47:25.649Z,11.35
2022-11-22T12:50:55.740Z,9.85
2022-11-22T12:54:03.551Z,10.88
2022-11-22T12:57:12.519Z,9.83
2022-11-22T13:00:31.915Z,9.83
2022-11-22T13:03:42.106Z,11.65
2022-11-22T13:06:56.192Z,11.30
2022-11-22T13:10:15.165Z,10.80
2022-11-22T13:13:22.781Z,10.53
2022-11-22T13:16:30.612Z,10.15
2022-11-22T13:19:38.716Z,12.47
2022-11-22T13:23:23.754Z,12.33
2022-11-22T13:26:55.912Z,13.58
2022-11-22T13:30:13.730Z,11.78
2022-11-22T13:33:40.778Z,13.08
2022-11-22T13:36:55.596Z,13.20
2022-11-22T13:40:02.245Z,14.18
2022-11-22T13:43:32.412Z,12.13
2022-11-22T13:47:07.740Z,12.35
2022-11-22T13:50:12.978Z,11.25
2022-11-22T13:53:41.838Z,28.85
2022-11-22T13:57:01.080Z,14.85
2022-11-22T14:00:29.696Z,15.53
2022-11-22T14:03:38.842Z,13.45
2022-11-22T14:06:46.706Z,14.28
2022-11-22T14:10:05.742Z,14.78
2022-11-22T14:13:34.864Z,25.20
2022-11-22T14:17:00.403Z,13.90
2022-11-22T14:20:47.155Z,11.33
2022-11-22T14:24:17.925Z,12.10
2022-11-22T14:27:44.014Z,11.70
2022-11-22T14:31:05.943Z,15.90
2022-11-22T14:34:39.134Z,17.37
2022-11-22T14:37:48.719Z,12.03
2022-11-22T14:40:59.668Z,17.67
2022-11-22T14:44:23.579Z,14.50
2022-11-22T14:47:29.500Z,17.20
2022-11-22T14:50:54.240Z,15.20
2022-11-22T14:54:06.474Z,14.50
2022-11-22T14:57:15.245Z,14.33
2022-11-22T15:00:45.359Z,14.70
2022-11-22T15:09:14.564Z,14.58
2022-11-22T15:09:15.569Z,11.78
2022-11-22T15:11:36.499Z,13.48
2022-11-22T15:57:13.695Z,11.88
2022-11-22T16:00:38.453Z,10.20
2022-11-22T16:03:51.729Z,12.23
2022-11-22T16:06:59.207Z,17.23
2022-11-22T16:10:05.398Z,11.83
2022-11-22T16:13:12.474Z,12.95
2022-11-22T16:16:33.115Z,11.50
2022-11-22T16:19:40.259Z,12.73
2022-11-22T16:22:47.005Z,14.20
2022-11-22T16:26:02.144Z,13.58
2022-11-22T16:29:08.724Z,11.70
2022-11-22T16:32:19.881Z,13.55
2022-11-22T16:35:30.325Z,12.45
2022-11-22T16:38:36.214Z,12.40
2022-11-22T16:41:44.044Z,11.75
2022-11-22T16:44:50.807Z,13.18
2022-11-22T16:48:29.829Z,18.20
2022-11-22T16:51:14.283Z,14.23
2022-11-22T16:54:24.765Z,13.22
2022-11-22T16:57:35.750Z,12.15
2022-11-22T17:03:52.847Z,11.93
2022-11-22T17:06:59.173Z,13.72
2022-11-22T17:10:04.614Z,12.73
2022-11-22T17:13:11.100Z,11.83
2022-11-22T17:16:18.290Z,15.53
2022-11-22T17:22:32.728Z,13.53
2022-11-22T17:25:39.115Z,14.35
2022-11-22T17:28:45.454Z,14.00
2022-11-22T17:31:51.537Z,14.50
2022-11-22T17:34:59.745Z,17.12
2022-11-22T17:38:11.338Z,15.63
2022-11-22T17:41:17.343Z,13.78
2022-11-22T17:44:27.295Z,12.78
2022-11-22T17:47:34.399Z,14.38
2022-11-22T17:50:40.870Z,13.85
2022-11-22T17:53:46.880Z,13.78
2022-11-22T17:56:53.807Z,15.53
2022-11-22T18:00:02.082Z,12.63
2022-11-22T18:03:09.050Z,13.98
2022-11-22T18:06:16.664Z,14.35
2022-11-22T18:09:22.523Z,14.68
2022-11-22T18:12:29.297Z,14.13
2022-11-22T18:15:36.279Z,15.78
2022-11-22T18:19:00.036Z,14.45
2022-11-22T18:21:53.371Z,14.87
2022-11-22T18:24:59.331Z,16.85
2022-11-22T18:28:05.074Z,17.73
2022-11-22T18:31:11.158Z,17.05
2022-11-22T18:34:18.818Z,16.73
2022-11-22T18:37:25.029Z,16.27
2022-11-22T18:40:30.852Z,16.97
2022-11-22T18:43:36.003Z,16.55
2022-11-22T18:46:42.993Z,17.25
2022-11-22T18:49:49.194Z,17.75
2022-11-22T18:52:56.705Z,19.20
2022-11-22T18:56:04.966Z,19.57
2022-11-22T18:59:12.406Z,20.05
2022-11-22T19:02:19.224Z,19.98
2022-11-22T19:05:24.749Z,19.20
2022-11-22T19:08:32.310Z,20.30
2022-11-22T19:11:39.772Z,18.10
2022-11-22T19:14:45.508Z,18.87
2022-11-22T19:17:57.005Z,16.67
2022-11-22T19:21:01.750Z,17.48
2022-11-22T19:24:08.209Z,17.10
2022-11-22T19:27:13.698Z,16.97
2022-11-22T19:30:24.216Z,15.68
2022-11-22T19:33:31.368Z,15.08
2022-11-22T19:36:39.122Z,14.58
2022-11-22T19:39:45.333Z,16.25
2022-11-22T19:42:52.782Z,16.65
2022-11-22T19:45:59.548Z,16.23
2022-11-22T19:49:10.991Z,16.55
2022-11-22T19:52:17.884Z,15.75
2022-11-22T19:55:24.555Z,17.73
2022-11-22T19:58:29.986Z,16.25
2022-11-22T20:01:38.509Z,16.93
2022-11-22T20:04:45.350Z,15.98
2022-11-22T20:07:51.292Z,15.90
2022-11-22T20:10:57.177Z,15.65
2022-11-22T20:14:06.395Z,15.58
2022-11-22T20:17:13.464Z,15.43
2022-11-22T20:20:20.405Z,13.90
2022-11-22T20:23:27.660Z,14.83
2022-11-22T20:26:33.633Z,14.38
2022-11-22T20:29:39.025Z,15.05
2022-11-22T20:32:46.095Z,15.48
2022-11-22T20:35:53.410Z,14.95
2022-11-22T20:39:06.973Z,14.78
2022-11-22T20:42:33.612Z,15.40
2022-11-22T20:45:21.195Z,15.65
2022-11-22T20:48:28.131Z,15.80
2022-11-22T20:51:36.887Z,15.80
2022-11-22T20:54:43.938Z,19.15
2022-11-22T20:57:51.673Z,18.05
2022-11-22T21:00:56.673Z,16.70
2022-11-22T21:04:02.072Z,17.00
2022-11-22T21:07:10.037Z,16.93
2022-11-22T21:10:17.333Z,15.88
2022-11-22T21:13:24.265Z,16.93
2022-11-22T21:16:41.959Z,15.75
2022-11-22T21:19:49.399Z,16.35
2022-11-22T21:22:57.930Z,17.50
2022-11-22T21:26:04.475Z,15.80
2022-11-22T21:29:16.234Z,17.50
2022-11-22T21:32:20.264Z,21.73
2022-11-22T21:35:26.408Z,17.55
2022-11-22T21:38:36.290Z,17.90
2022-11-22T21:41:42.941Z,17.52
2022-11-22T21:44:49.060Z,18.50
2022-11-22T21:47:56.368Z,18.17
2022-11-22T21:51:04.567Z,18.27
2022-11-22T21:54:15.051Z,17.82
2022-11-22T21:57:21.544Z,17.98
2022-11-22T22:00:31.466Z,18.42
2022-11-22T22:03:37.886Z,17.85
2022-11-22T22:06:46.249Z,18.37
2022-11-22T22:09:52.530Z,17.25
2022-11-22T22:13:00.945Z,20.10
2022-11-22T22:16:18.275Z,18.45
2022-11-22T22:19:25.779Z,19.85
2022-11-22T22:22:33.501Z,19.62
2022-11-22T22:25:40.239Z,21.23
2022-11-22T22:28:46.575Z,20.48
2022-11-22T22:31:53.046Z,20.95
2022-11-22T22:34:59.269Z,21.02
2022-11-22T22:38:05.662Z,21.35
2022-11-22T22:41:15.033Z,22.52
2022-11-22T22:44:22.976Z,21.68
2022-11-22T22:47:28.607Z,21.48
2022-11-22T22:50:35.698Z,20.70
2022-11-22T22:53:41.916Z,22.32
2022-11-22T22:56:49.970Z,19.75
2022-11-22T22:59:56.752Z,17.67
2022-11-22T23:03:03.467Z,17.00
2022-11-22T23:06:10.070Z,16.80
2022-11-22T23:09:16.002Z,18.67
2022-11-22T23:12:24.448Z,17.00
2022-11-22T23:15:56.513Z,16.73
2022-11-22T23:18:38.711Z,19.55
2022-11-22T23:21:44.475Z,19.45
2022-11-22T23:24:49.724Z,17.80
2022-11-22T23:27:56.630Z,18.45
2022-11-22T23:31:04.524Z,16.45
2022-11-22T23:34:10.119Z,16.20
2022-11-22T23:37:15.803Z,16.07
2022-11-22T23:40:24.062Z,17.85
2022-11-22T23:43:30.527Z,14.65
2022-11-22T23:46:37.801Z,14.70
2022-11-22T23:49:44.169Z,17.05
2022-11-22T23:52:49.163Z,15.80
2022-11-22T23:55:56.190Z,15.30
2022-11-22T23:59:02.389Z,15.25
